createdAt,value
2022-08-08T00:01:21.272Z,99.90
2022-08-08T00:04:35.457Z,99.90
2022-08-08T00:07:12.744Z,99.90
2022-08-08T00:09:43.384Z,99.90
2022-08-08T00:12:15.008Z,99.90
2022-08-08T00:15:17.444Z,99.90
2022-08-08T00:18:17.169Z,99.90
2022-08-08T00:20:52.989Z,99.90
2022-08-08T00:23:55.989Z,99.90
2022-08-08T00:26:38.787Z,99.90
2022-08-08T00:29:45.749Z,99.90
2022-08-08T00:32:35.683Z,99.90
2022-08-08T00:35:48.159Z,99.90
2022-08-08T00:38:51.701Z,99.90
2022-08-08T00:41:54.425Z,99.90
2022-08-08T00:44:27.548Z,99.90
2022-08-08T00:47:19.330Z,99.90
2022-08-08T00:50:07.586Z,99.90
2022-08-08T00:52:40.495Z,99.90
2022-08-08T00:55:52.957Z,99.90
2022-08-08T00:58:54.737Z,99.90
2022-08-08T01:02:01.744Z,99.90
2022-08-08T01:04:42.067Z,99.90
2022-08-08T01:07:57.043Z,99.90
2022-08-08T01:10:35.768Z,99.90
2022-08-08T01:13:38.002Z,99.90
2022-08-08T01:16:37.290Z,99.90
2022-08-08T01:19:42.384Z,99.90
2022-08-08T01:22:35.038Z,99.90
2022-08-08T01:25:42.839Z,99.90
2022-08-08T01:28:47.124Z,99.90
2022-08-08T01:32:14.740Z,99.90
2022-08-08T01:35:11.269Z,99.90
2022-08-08T01:38:07.649Z,99.90
2022-08-08T01:41:00.262Z,99.90
2022-08-08T01:43:50.588Z,99.90
2022-08-08T01:46:52.511Z,99.90
2022-08-08T01:49:45.994Z,99.90
2022-08-08T01:53:28.823Z,99.90
2022-08-08T01:56:28.560Z,99.90
2022-08-08T01:58:50.833Z,99.90
2022-08-08T02:02:00.543Z,99.90
2022-08-08T02:04:53.758Z,99.90
2022-08-08T02:07:36.997Z,99.90
2022-08-08T02:10:29.332Z,99.90
2022-08-08T02:13:53.070Z,99.90
2022-08-08T02:16:34.528Z,99.90
2022-08-08T02:19:41.987Z,99.90
2022-08-08T02:22:31.328Z,99.90
2022-08-08T02:25:16.462Z,99.90
2022-08-08T02:28:04.382Z,99.90
2022-08-08T02:31:19.566Z,99.90
2022-08-08T02:34:32.993Z,99.90
2022-08-08T02:37:52.519Z,99.90
2022-08-08T02:40:16.189Z,99.90
2022-08-08T02:44:43.193Z,99.90
2022-08-08T02:45:57.437Z,99.90
2022-08-08T02:48:40.955Z,99.90
2022-08-08T02:51:38.953Z,99.90
2022-08-08T02:54:26.020Z,99.90
2022-08-08T02:57:17.026Z,99.90
2022-08-08T02:59:57.270Z,99.90
2022-08-08T03:02:53.328Z,99.90
2022-08-08T03:05:46.525Z,99.90
2022-08-08T03:08:52.406Z,99.90
2022-08-08T03:12:02.984Z,99.90
2022-08-08T03:15:58.111Z,99.90
2022-08-08T03:18:07.770Z,99.90
2022-08-08T03:20:51.428Z,99.90
2022-08-08T03:23:23.635Z,99.90
2022-08-08T03:25:51.882Z,99.90
2022-08-08T03:28:27.825Z,99.90
2022-08-08T03:31:13.565Z,99.90
2022-08-08T03:33:55.906Z,99.90
2022-08-08T03:36:30.092Z,99.90
2022-08-08T03:39:15.277Z,99.90
2022-08-08T03:42:12.335Z,99.90
2022-08-08T03:44:35.358Z,99.90
2022-08-08T03:47:19.217Z,99.90
2022-08-08T03:50:00.188Z,99.90
2022-08-08T03:52:31.674Z,99.90
2022-08-08T03:55:09.991Z,99.90
2022-08-08T03:58:31.401Z,99.90
2022-08-08T04:00:27.457Z,99.90
2022-08-08T04:03:03.410Z,99.90
2022-08-08T04:05:36.531Z,99.90
2022-08-08T04:08:08.333Z,99.90
2022-08-08T04:10:36.557Z,99.90
2022-08-08T04:13:17.857Z,99.90
2022-08-08T04:16:03.799Z,99.90
2022-08-08T04:18:32.745Z,99.90
2022-08-08T04:21:00.997Z,99.90
2022-08-08T04:24:04.668Z,99.90
2022-08-08T04:26:19.568Z,99.90
2022-08-08T04:28:46.787Z,99.90
2022-08-08T04:31:30.743Z,99.90
2022-08-08T04:34:00.920Z,99.90
2022-08-08T04:36:28.036Z,99.90
2022-08-08T04:39:47.666Z,99.90
2022-08-08T04:41:45.080Z,99.90
2022-08-08T04:44:12.927Z,99.90
2022-08-08T04:46:40.041Z,99.90
2022-08-08T04:49:06.968Z,99.90
2022-08-08T04:51:57.348Z,99.90
2022-08-08T04:54:39.217Z,99.90
2022-08-08T04:57:09.151Z,99.90
2022-08-08T04:59:42.128Z,99.90
2022-08-08T05:02:09.921Z,99.90
2022-08-08T05:04:41.614Z,99.90
2022-08-08T05:07:11.928Z,99.90
2022-08-08T05:09:42.389Z,99.90
2022-08-08T05:12:09.555Z,99.90
2022-08-08T05:14:47.836Z,99.90
2022-08-08T05:17:15.522Z,99.90
2022-08-08T05:20:04.462Z,99.90
2022-08-08T05:22:32.776Z,99.90
2022-08-08T05:25:01.147Z,99.90
2022-08-08T05:27:33.083Z,99.90
2022-08-08T05:30:00.775Z,99.90
2022-08-08T05:32:29.949Z,99.90
2022-08-08T05:35:04.649Z,99.90
2022-08-08T05:37:52.319Z,99.90
2022-08-08T05:40:21.651Z,99.90
2022-08-08T05:43:17.166Z,99.90
2022-08-08T05:46:02.015Z,99.90
2022-08-08T05:48:34.638Z,99.90
2022-08-08T05:51:14.597Z,99.90
2022-08-08T05:53:56.025Z,99.90
2022-08-08T05:56:37.651Z,99.40
2022-08-08T05:59:12.668Z,97.90
2022-08-08T06:01:55.922Z,97.50
2022-08-08T06:04:27.072Z,97.60
2022-08-08T06:07:04.021Z,97.40
2022-08-08T06:09:59.321Z,95.70
2022-08-08T06:12:30.533Z,94.90
2022-08-08T06:15:02.783Z,93.20
2022-08-08T06:17:51.658Z,92.40
2022-08-08T06:20:22.960Z,92.00
2022-08-08T06:22:53.194Z,90.90
2022-08-08T06:25:33.255Z,90.50
2022-08-08T06:28:29.097Z,90.40
2022-08-08T06:31:03.359Z,88.80
2022-08-08T06:34:26.238Z,88.00
2022-08-08T06:36:53.823Z,86.50
2022-08-08T06:39:22.636Z,85.60
2022-08-08T06:42:03.016Z,84.60
2022-08-08T06:44:31.149Z,81.90
2022-08-08T06:46:59.692Z,82.30
2022-08-08T06:49:55.547Z,81.90
2022-08-08T06:52:17.093Z,82.20
2022-08-08T06:54:48.953Z,80.60
2022-08-08T06:57:16.701Z,80.30
2022-08-08T07:00:10.679Z,81.20
2022-08-08T07:02:34.662Z,80.50
2022-08-08T07:05:11.928Z,81.50
2022-08-08T07:07:50.552Z,80.60
2022-08-08T07:10:21.123Z,77.70
2022-08-08T07:13:02.697Z,79.00
2022-08-08T07:16:04.422Z,78.40
2022-08-08T07:18:57.477Z,75.60
2022-08-08T07:21:31.339Z,74.30
2022-08-08T07:24:06.720Z,73.90
2022-08-08T07:26:40.259Z,72.80
2022-08-08T07:29:08.257Z,71.50
2022-08-08T07:31:39.182Z,74.10
2022-08-08T07:34:08.798Z,72.80
2022-08-08T07:36:42.094Z,74.30
2022-08-08T07:39:22.483Z,73.90
2022-08-08T07:42:04.197Z,72.70
2022-08-08T07:44:38.225Z,72.50
2022-08-08T07:47:11.000Z,71.60
2022-08-08T07:49:40.020Z,68.80
2022-08-08T07:52:13.380Z,67.90
2022-08-08T07:54:58.446Z,67.60
2022-08-08T07:57:49.413Z,66.30
2022-08-08T08:00:17.352Z,66.60
2022-08-08T08:02:47.766Z,65.90
2022-08-08T08:05:33.052Z,65.70
2022-08-08T08:08:15.481Z,67.70
2022-08-08T08:10:50.270Z,67.70
2022-08-08T08:14:07.705Z,67.70
2022-08-08T08:16:39.174Z,67.30
2022-08-08T08:19:15.018Z,64.70
2022-08-08T08:21:57.072Z,62.80
2022-08-08T08:24:30.437Z,62.60
2022-08-08T08:27:00.155Z,63.40
2022-08-08T08:29:30.844Z,62.70
2022-08-08T08:31:59.235Z,62.10
2022-08-08T08:34:32.601Z,63.40
2022-08-08T08:37:08.498Z,63.70
2022-08-08T08:39:59.659Z,63.30
2022-08-08T08:42:29.364Z,63.70
2022-08-08T08:45:21.885Z,64.60
2022-08-08T08:47:58.437Z,64.60
2022-08-08T08:50:32.641Z,63.60
2022-08-08T08:53:27.586Z,63.80
2022-08-08T08:56:02.227Z,63.90
2022-08-08T08:58:46.961Z,63.40
2022-08-08T09:01:20.335Z,62.70
2022-08-08T09:03:50.874Z,63.30
2022-08-08T09:06:34.194Z,63.00
2022-08-08T09:09:04.553Z,62.00
2022-08-08T09:11:33.530Z,62.80
2022-08-08T09:14:02.111Z,62.40
2022-08-08T09:16:32.829Z,60.10
2022-08-08T09:19:00.012Z,59.90
2022-08-08T09:21:59.393Z,60.80
2022-08-08T09:24:17.689Z,61.00
2022-08-08T09:27:20.099Z,61.20
2022-08-08T09:30:06.238Z,61.30
2022-08-08T09:33:12.947Z,59.30
2022-08-08T09:35:37.440Z,59.20
2022-08-08T09:38:05.859Z,59.10
2022-08-08T09:40:44.041Z,58.50
2022-08-08T09:44:05.479Z,58.10
2022-08-08T09:46:25.874Z,58.00
2022-08-08T09:49:04.295Z,58.30
2022-08-08T09:52:06.743Z,58.10
2022-08-08T09:54:44.592Z,57.70
2022-08-08T09:57:17.669Z,58.60
2022-08-08T10:00:14.815Z,58.40
2022-08-08T10:02:40.469Z,57.80
2022-08-08T10:05:14.670Z,57.50
2022-08-08T10:07:51.243Z,57.00
2022-08-08T10:10:36.640Z,57.50
2022-08-08T10:13:32.278Z,57.10
2022-08-08T10:16:03.425Z,57.00
2022-08-08T10:18:35.933Z,56.00
2022-08-08T10:21:24.964Z,56.50
2022-08-08T10:23:55.937Z,56.80
2022-08-08T10:26:57.494Z,56.50
2022-08-08T10:29:24.880Z,56.50
2022-08-08T10:32:16.058Z,55.70
2022-08-08T10:34:57.186Z,56.30
2022-08-08T10:37:30.536Z,56.00
2022-08-08T10:39:59.471Z,55.90
2022-08-08T10:42:34.830Z,55.40
2022-08-08T10:45:07.997Z,56.00
2022-08-08T10:47:43.098Z,56.30
2022-08-08T10:50:15.279Z,56.20
2022-08-08T10:52:44.565Z,55.80
2022-08-08T10:55:39.953Z,54.80
2022-08-08T10:58:06.562Z,54.80
2022-08-08T11:00:48.305Z,54.40
2022-08-08T11:03:36.839Z,54.00
2022-08-08T11:06:12.564Z,54.00
2022-08-08T11:08:50.121Z,54.70
2022-08-08T11:11:32.514Z,54.30
2022-08-08T11:14:12.369Z,54.50
2022-08-08T11:16:46.624Z,54.70
2022-08-08T11:19:15.767Z,54.90
2022-08-08T11:21:53.879Z,54.70
2022-08-08T11:24:26.909Z,54.40
2022-08-08T11:26:58.111Z,54.80
2022-08-08T11:29:41.790Z,55.00
2022-08-08T11:32:16.672Z,54.60
2022-08-08T11:38:34.289Z,54.40
2022-08-08T11:40:26.443Z,54.40
2022-08-08T11:42:55.528Z,54.10
2022-08-08T11:45:23.087Z,53.80
2022-08-08T11:48:02.887Z,53.40
2022-08-08T11:50:33.860Z,54.00
2022-08-08T11:53:06.253Z,53.90
2022-08-08T11:55:36.406Z,54.60
2022-08-08T11:58:14.522Z,53.70
2022-08-08T12:00:50.856Z,54.20
2022-08-08T12:03:21.210Z,54.10
2022-08-08T12:05:49.304Z,53.90
2022-08-08T12:08:18.139Z,53.90
2022-08-08T12:10:50.060Z,53.40
2022-08-08T12:13:38.194Z,53.40
2022-08-08T12:16:18.350Z,53.00
2022-08-08T12:18:56.039Z,54.20
2022-08-08T12:21:58.720Z,53.50
2022-08-08T12:24:28.092Z,54.10
2022-08-08T12:26:58.729Z,54.90
2022-08-08T12:29:40.127Z,54.60
2022-08-08T12:32:19.678Z,54.80
2022-08-08T12:35:01.243Z,55.10
2022-08-08T12:37:40.639Z,54.80
2022-08-08T12:40:23.048Z,54.70
2022-08-08T12:42:53.032Z,54.40
2022-08-08T12:45:58.771Z,54.60
2022-08-08T12:48:36.585Z,54.40
2022-08-08T12:51:07.845Z,54.30
2022-08-08T12:53:58.837Z,54.00
2022-08-08T12:56:34.001Z,54.40
2022-08-08T12:59:01.242Z,54.50
2022-08-08T13:01:37.747Z,54.70
2022-08-08T13:04:18.937Z,55.10
2022-08-08T13:06:57.348Z,55.20
2022-08-08T13:09:43.275Z,55.00
2022-08-08T13:12:30.434Z,55.20
2022-08-08T13:15:00.651Z,55.20
2022-08-08T13:18:07.900Z,55.00
2022-08-08T13:20:19.977Z,54.90
2022-08-08T13:22:47.682Z,54.80
2022-08-08T13:25:16.223Z,55.20
2022-08-08T13:27:43.975Z,55.30
2022-08-08T13:30:18.883Z,55.10
2022-08-08T13:32:54.457Z,55.40
2022-08-08T13:35:38.285Z,55.20
2022-08-08T13:38:08.078Z,54.50
2022-08-08T13:40:41.095Z,54.50
2022-08-08T13:43:08.742Z,54.70
2022-08-08T13:45:36.998Z,54.70
2022-08-08T13:48:13.128Z,54.90
2022-08-08T13:50:53.902Z,54.90
2022-08-08T13:53:31.585Z,55.00
2022-08-08T13:56:11.457Z,54.50
2022-08-08T13:58:57.414Z,54.50
2022-08-08T14:01:42.170Z,54.80
2022-08-08T14:04:24.685Z,55.00
2022-08-08T14:07:04.567Z,54.80
2022-08-08T14:10:05.792Z,55.20
2022-08-08T14:12:29.544Z,54.90
2022-08-08T14:14:56.781Z,55.30
2022-08-08T14:17:57.363Z,55.00
2022-08-08T14:20:15.826Z,55.20
2022-08-08T14:23:10.262Z,55.40
2022-08-08T14:25:53.995Z,55.50
2022-08-08T14:28:23.867Z,55.50
2022-08-08T14:31:09.383Z,55.70
2022-08-08T14:33:37.103Z,55.80
2022-08-08T14:36:13.716Z,55.70
2022-08-08T14:38:52.929Z,55.90
2022-08-08T14:41:45.608Z,55.80
2022-08-08T14:44:19.582Z,56.20
2022-08-08T14:46:58.139Z,56.30
2022-08-08T14:49:51.388Z,56.50
2022-08-08T14:52:21.581Z,56.60
2022-08-08T14:54:49.390Z,56.70
2022-08-08T14:57:17.000Z,56.70
2022-08-08T14:59:50.887Z,56.80
2022-08-08T15:02:25.856Z,57.10
2022-08-08T15:05:08.069Z,56.70
2022-08-08T15:07:39.410Z,56.90
2022-08-08T15:10:09.346Z,57.20
2022-08-08T15:12:37.787Z,57.00
2022-08-08T15:15:06.909Z,57.10
2022-08-08T15:17:40.843Z,57.20
2022-08-08T15:20:14.149Z,57.20
2022-08-08T15:22:42.557Z,57.30
2022-08-08T15:25:17.642Z,57.70
2022-08-08T15:28:04.585Z,57.20
2022-08-08T15:30:43.794Z,57.40
2022-08-08T15:33:14.387Z,58.00
2022-08-08T15:35:59.948Z,57.60
2022-08-08T15:38:40.632Z,57.60
2022-08-08T15:41:17.429Z,57.90
2022-08-08T15:44:00.661Z,57.60
2022-08-08T15:46:35.033Z,58.00
2022-08-08T15:49:04.071Z,58.20
2022-08-08T15:51:33.649Z,58.00
2022-08-08T15:54:01.376Z,58.30
2022-08-08T15:56:28.340Z,58.30
2022-08-08T15:58:55.230Z,58.20
2022-08-08T16:01:22.716Z,58.30
2022-08-08T16:03:51.744Z,58.00
2022-08-08T16:06:27.787Z,59.20
2022-08-08T16:13:00.157Z,59.70
2022-08-08T16:13:04.329Z,58.90
2022-08-08T16:14:32.483Z,60.00
2022-08-08T16:17:00.257Z,59.50
2022-08-08T16:19:27.725Z,60.60
2022-08-08T16:21:57.959Z,64.00
2022-08-08T16:24:25.117Z,63.00
2022-08-08T16:26:52.056Z,63.30
2022-08-08T16:29:23.845Z,63.70
2022-08-08T16:32:11.257Z,64.90
2022-08-08T16:34:40.585Z,65.20
2022-08-08T16:37:07.640Z,66.30
2022-08-08T16:40:00.325Z,67.70
2022-08-08T16:42:28.523Z,68.20
2022-08-08T16:44:59.484Z,68.20
2022-08-08T16:47:40.530Z,70.70
2022-08-08T16:50:15.888Z,72.70
2022-08-08T16:55:04.911Z,82.00
2022-08-08T16:55:52.953Z,90.40
2022-08-08T16:58:25.768Z,93.50
2022-08-08T17:00:55.025Z,96.50
2022-08-08T17:03:24.898Z,99.50
2022-08-08T17:06:37.702Z,99.90
2022-08-08T17:08:57.522Z,99.90
2022-08-08T17:11:27.921Z,99.90
2022-08-08T17:14:01.623Z,99.90
2022-08-08T17:16:29.322Z,99.90
2022-08-08T17:18:58.302Z,99.90
2022-08-08T17:21:26.056Z,99.90
2022-08-08T17:24:00.422Z,99.90
2022-08-08T17:26:31.046Z,99.90
2022-08-08T17:29:04.476Z,99.90
2022-08-08T17:31:43.448Z,99.90
2022-08-08T17:34:52.769Z,99.90
2022-08-08T17:37:03.910Z,99.90
2022-08-08T17:40:04.163Z,99.90
2022-08-08T17:42:21.491Z,99.90
2022-08-08T17:44:52.781Z,99.90
2022-08-08T17:47:27.641Z,99.90
2022-08-08T17:50:00.943Z,99.90
2022-08-08T17:52:30.931Z,99.90
2022-08-08T17:54:58.015Z,99.90
2022-08-08T17:57:28.966Z,99.90
2022-08-08T18:00:04.101Z,99.90
2022-08-08T18:02:31.195Z,99.90
2022-08-08T18:04:58.853Z,99.90
2022-08-08T18:08:02.390Z,99.90
2022-08-08T18:10:15.737Z,99.90
2022-08-08T18:12:46.040Z,99.90
2022-08-08T18:15:14.730Z,99.90
2022-08-08T18:18:27.469Z,99.90
2022-08-08T18:20:36.994Z,99.90
2022-08-08T18:23:16.171Z,99.90
2022-08-08T18:25:44.286Z,99.90
2022-08-08T18:28:13.560Z,99.90
2022-08-08T18:30:42.732Z,99.90
2022-08-08T18:33:36.933Z,99.90
2022-08-08T18:36:03.011Z,99.90
2022-08-08T18:38:32.362Z,99.90
2022-08-08T18:41:03.199Z,99.90
2022-08-08T18:43:38.064Z,99.90
2022-08-08T18:46:54.513Z,99.90
2022-08-08T18:48:57.150Z,99.90
2022-08-08T18:51:53.561Z,99.90
2022-08-08T18:54:22.603Z,99.90
2022-08-08T18:56:56.835Z,99.90
2022-08-08T18:59:23.934Z,99.90
2022-08-08T19:02:25.813Z,99.90
2022-08-08T19:04:38.462Z,99.90
2022-08-08T19:07:05.564Z,99.90
2022-08-08T19:09:49.617Z,99.90
2022-08-08T19:12:26.559Z,99.90
2022-08-08T19:14:53.799Z,99.90
2022-08-08T19:17:29.224Z,99.90
2022-08-08T19:20:09.063Z,99.90
2022-08-08T19:22:36.608Z,99.90
2022-08-08T19:26:01.449Z,99.90
2022-08-08T19:27:57.269Z,99.90
2022-08-08T19:30:27.358Z,99.90
2022-08-08T19:32:58.140Z,99.90
2022-08-08T19:35:44.396Z,99.90
2022-08-08T19:38:17.488Z,99.90
2022-08-08T19:40:54.334Z,99.90
2022-08-08T19:43:28.119Z,99.90
2022-08-08T19:45:59.773Z,99.90
2022-08-08T19:48:28.665Z,99.90
2022-08-08T19:50:59.069Z,99.90
2022-08-08T19:53:51.998Z,99.90
2022-08-08T19:56:16.509Z,99.90
2022-08-08T19:58:54.645Z,99.90
2022-08-08T20:01:31.782Z,99.90
2022-08-08T20:04:09.306Z,99.90
2022-08-08T20:06:37.034Z,99.90
2022-08-08T20:09:08.642Z,99.90
2022-08-08T20:11:42.850Z,99.90
2022-08-08T20:14:34.928Z,99.90
2022-08-08T20:16:57.525Z,99.90
2022-08-08T20:19:34.344Z,99.90
2022-08-08T20:22:13.201Z,99.90
2022-08-08T20:24:47.675Z,99.90
2022-08-08T20:27:19.928Z,99.90
2022-08-08T20:30:00.401Z,99.90
2022-08-08T20:32:29.788Z,99.90
2022-08-08T20:35:01.158Z,99.90
2022-08-08T20:37:53.082Z,99.90
2022-08-08T20:40:17.256Z,99.90
2022-08-08T20:42:54.887Z,99.90
2022-08-08T20:45:57.651Z,99.90
2022-08-08T20:48:09.629Z,99.90
2022-08-08T20:50:36.930Z,99.90
2022-08-08T20:53:06.898Z,99.90
2022-08-08T20:55:43.327Z,99.90
2022-08-08T20:58:22.992Z,99.90
2022-08-08T21:00:50.372Z,99.90
2022-08-08T21:03:17.449Z,99.90
2022-08-08T21:05:49.418Z,99.90
2022-08-08T21:08:36.953Z,99.90
2022-08-08T21:11:13.432Z,99.90
2022-08-08T21:13:42.059Z,99.90
2022-08-08T21:16:20.321Z,99.90
2022-08-08T21:18:57.558Z,99.90
2022-08-08T21:21:41.419Z,99.90
2022-08-08T21:24:26.874Z,99.90
2022-08-08T21:26:57.084Z,99.90
2022-08-08T21:30:05.728Z,99.90
2022-08-08T21:32:19.011Z,99.90
2022-08-08T21:34:51.819Z,99.90
2022-08-08T21:37:54.867Z,99.90
2022-08-08T21:40:11.673Z,99.90
2022-08-08T21:42:39.812Z,99.90
2022-08-08T21:45:44.890Z,99.90
2022-08-08T21:48:16.263Z,99.90
2022-08-08T21:50:43.235Z,99.90
2022-08-08T21:54:23.406Z,99.90
2022-08-08T21:56:20.067Z,99.90
2022-08-08T21:58:44.898Z,99.90
2022-08-08T22:01:30.024Z,99.90
2022-08-08T22:04:10.324Z,99.90
2022-08-08T22:06:39.591Z,99.90
2022-08-08T22:09:09.682Z,99.90
2022-08-08T22:11:56.548Z,99.90
2022-08-08T22:14:26.576Z,99.90
2022-08-08T22:16:54.547Z,99.90
2022-08-08T22:19:24.104Z,99.90
2022-08-08T22:21:53.073Z,99.90
2022-08-08T22:24:28.333Z,99.90
2022-08-08T22:27:02.387Z,99.90
2022-08-08T22:29:59.478Z,99.90
2022-08-08T22:32:18.977Z,99.90
2022-08-08T22:34:50.658Z,99.90
2022-08-08T22:37:49.455Z,99.90
2022-08-08T22:40:11.748Z,99.90
2022-08-08T22:42:40.282Z,99.90
2022-08-08T22:45:12.391Z,99.90
2022-08-08T22:47:41.222Z,99.90
2022-08-08T22:50:25.596Z,99.90
2022-08-08T22:54:27.981Z,99.90
2022-08-08T22:55:57.792Z,99.90
2022-08-08T22:58:28.724Z,99.90
2022-08-08T23:01:00.003Z,99.90
2022-08-08T23:03:34.141Z,99.90
2022-08-08T23:06:16.604Z,99.90
2022-08-08T23:08:55.872Z,99.90
2022-08-08T23:12:17.728Z,99.90
2022-08-08T23:14:15.817Z,99.90
2022-08-08T23:16:45.669Z,99.90
2022-08-08T23:19:15.554Z,99.90
2022-08-08T23:21:46.858Z,99.90
2022-08-08T23:24:22.774Z,99.90
2022-08-08T23:26:55.676Z,99.90
2022-08-08T23:29:29.916Z,99.90
2022-08-08T23:31:58.705Z,99.90
2022-08-08T23:34:25.860Z,99.90
2022-08-08T23:37:00.601Z,99.90
2022-08-08T23:39:42.049Z,99.90
2022-08-08T23:42:16.739Z,99.90
2022-08-08T23:44:45.247Z,99.90
2022-08-08T23:49:05.327Z,99.90
2022-08-08T23:50:02.871Z,99.90
2022-08-08T23:52:32.981Z,99.90
2022-08-08T23:55:13.892Z,99.90
2022-08-08T23:57:52.102Z,99.90
